Terminal Aerodrome Forecast
Issued by NWS

Home | Current Version | Previous Version | Text Only | Print | Product List | Glossary On
Versions: 1 2 3 4 5 6 7 8 9 10 11 12 13 14
451
FTUS45 KABQ 222325
TAFSAF
TAF
KSAF 222325Z 2300/2324 12012KT P6SM VCTS SCT080CB
      TEMPO 2300/2302 VRB25G35KT BKN070CB
     FM230200 11015G22KT P6SM VCSH BKN070
     FM230600 01013KT P6SM BKN120
     FM231300 05008KT P6SM FEW070 SCT120
     FM231800 13012KT P6SM SCT070 SCT150
     FM232000 12015KT P6SM VCTS BKN070CB=

USA.gov is the U.S. government's official web portal to all federal, state and local government web resources and services.